Parkin, Arkansas
Current Conditions -  °F | °C
As of 9:53 AM on Tuesday 21 Oct 2014 (Local Time) from KAWM Reporting Station
Clear Clear  
Wind Chill: 67°   Ceiling: Unl
Heat Index: 67°   Visibility: 10mi
Dew Point: 54°   Wind: 5mph
Humidity: 63%   Direction: 110°ESE
Pressure: 30.1"   Gusts: NA
Location:  35.26°N, 90.57°W
Report Text: KAWM 211453Z AUTO 11004KT 10SM CLR 19/12 A3010 RMK AO2 SLP190 T01940122 53011
Loading
Personal Weather Stations






























Interactive Weather Map New forecast layout! Learn more

10-Day Weather Forecast

Advertisements
Track Severe Weather on mobile